createdAt,value
2023-05-05T00:00:12.134Z,810.00
2023-05-05T00:01:12.192Z,845.00
2023-05-05T00:02:12.275Z,836.00
2023-05-05T00:03:12.325Z,830.00
2023-05-05T00:04:12.370Z,850.00
2023-05-05T00:05:12.400Z,845.00
2023-05-05T00:06:12.444Z,877.00
2023-05-05T00:07:12.508Z,856.00
2023-05-05T00:08:12.557Z,869.00
2023-05-05T00:09:12.640Z,870.00
2023-05-05T00:10:12.672Z,883.00
2023-05-05T00:11:12.742Z,878.00
2023-05-05T00:12:12.755Z,895.00
2023-05-05T00:13:12.914Z,923.00
2023-05-05T00:14:12.867Z,931.00
2023-05-05T00:15:12.940Z,917.00
2023-05-05T00:16:12.996Z,938.00
2023-05-05T00:17:13.125Z,965.00
2023-05-05T00:18:13.087Z,960.00
2023-05-05T00:19:13.131Z,983.00
2023-05-05T00:20:13.169Z,949.00
2023-05-05T00:21:13.231Z,951.00
2023-05-05T00:22:13.282Z,931.00
2023-05-05T00:23:13.314Z,915.00
2023-05-05T00:24:13.362Z,916.00
2023-05-05T00:25:13.434Z,892.00
2023-05-05T00:26:13.497Z,889.00
2023-05-05T00:27:13.521Z,898.00
2023-05-05T00:28:13.621Z,853.00
2023-05-05T00:29:13.642Z,869.00
2023-05-05T00:30:13.720Z,897.00
2023-05-05T00:31:13.791Z,884.00
2023-05-05T00:32:13.840Z,872.00
2023-05-05T00:33:13.849Z,913.00
2023-05-05T00:34:13.895Z,871.00
2023-05-05T00:35:13.958Z,897.00
2023-05-05T00:36:14.034Z,871.00
2023-05-05T00:37:14.116Z,867.00
2023-05-05T00:38:14.174Z,837.00
2023-05-05T00:39:14.196Z,846.00
2023-05-05T00:40:14.244Z,826.00
2023-05-05T00:41:14.294Z,819.00
2023-05-05T00:42:14.365Z,832.00
2023-05-05T00:43:14.422Z,792.00
2023-05-05T00:44:14.468Z,789.00
2023-05-05T00:45:14.535Z,807.00
2023-05-05T00:46:14.635Z,800.00
2023-05-05T00:47:14.632Z,814.00
2023-05-05T00:48:14.724Z,824.00
2023-05-05T00:49:14.856Z,785.00
2023-05-05T00:50:14.815Z,802.00
2023-05-05T00:51:14.889Z,798.00
2023-05-05T00:52:14.953Z,809.00
2023-05-05T00:53:15.007Z,821.00
2023-05-05T00:54:15.068Z,796.00
2023-05-05T00:55:15.164Z,792.00
2023-05-05T00:56:15.224Z,801.00
2023-05-05T00:57:15.310Z,830.00
2023-05-05T00:58:15.325Z,828.00
2023-05-05T00:59:15.396Z,823.00
2023-05-05T01:00:15.439Z,803.00
2023-05-05T01:01:15.651Z,874.00
2023-05-05T01:02:15.544Z,855.00
2023-05-05T01:03:15.777Z,917.00
2023-05-05T01:04:15.702Z,864.00
2023-05-05T01:05:15.759Z,856.00
2023-05-05T01:06:15.823Z,878.00
2023-05-05T01:07:15.891Z,917.00
2023-05-05T01:08:16.804Z,862.00
2023-05-05T01:09:16.030Z,877.00
2023-05-05T01:10:20.427Z,873.00
2023-05-05T01:11:16.061Z,875.00
2023-05-05T01:12:16.049Z,876.00
2023-05-05T01:13:16.069Z,868.00
2023-05-05T01:14:16.052Z,840.00
2023-05-05T01:15:16.013Z,835.00
2023-05-05T01:16:16.034Z,820.00
2023-05-05T01:17:16.008Z,822.00
2023-05-05T01:18:15.994Z,860.00
2023-05-05T01:19:15.975Z,842.00
2023-05-05T01:20:15.988Z,824.00
2023-05-05T01:21:16.020Z,841.00
2023-05-05T01:22:15.979Z,807.00
2023-05-05T01:23:16.055Z,802.00
2023-05-05T01:24:16.099Z,816.00
2023-05-05T01:25:16.165Z,818.00
2023-05-05T01:26:16.209Z,815.00
2023-05-05T01:27:16.287Z,819.00
2023-05-05T01:28:16.370Z,797.00
2023-05-05T01:29:16.409Z,801.00
2023-05-05T01:30:16.449Z,846.00
2023-05-05T01:31:16.536Z,818.00
2023-05-05T01:32:16.592Z,812.00
2023-05-05T01:33:16.617Z,837.00
2023-05-05T01:34:16.695Z,828.00
2023-05-05T01:35:16.753Z,788.00
2023-05-05T01:36:16.776Z,810.00
2023-05-05T01:37:16.865Z,812.00
2023-05-05T01:38:16.926Z,817.00
2023-05-05T01:39:16.998Z,812.00
2023-05-05T01:40:17.008Z,819.00
2023-05-05T01:41:17.057Z,820.00
2023-05-05T01:42:17.132Z,819.00
2023-05-05T01:43:17.163Z,787.00
2023-05-05T01:44:17.256Z,801.00
2023-05-05T01:45:17.318Z,790.00
2023-05-05T01:46:17.405Z,833.00
2023-05-05T01:47:17.402Z,776.00
2023-05-05T01:48:17.399Z,795.00
2023-05-05T01:49:17.489Z,789.00
2023-05-05T01:50:17.506Z,757.00
2023-05-05T01:51:17.597Z,770.00
2023-05-05T01:52:17.656Z,768.00
2023-05-05T01:53:17.687Z,768.00
2023-05-05T01:54:17.731Z,745.00
2023-05-05T01:55:17.732Z,751.00
2023-05-05T01:56:17.774Z,791.00
2023-05-05T01:57:17.781Z,755.00
2023-05-05T01:58:17.832Z,764.00
2023-05-05T01:59:17.879Z,782.00
2023-05-05T02:00:17.872Z,722.00
2023-05-05T02:01:17.905Z,773.00
2023-05-05T02:02:17.927Z,768.00
2023-05-05T02:03:17.976Z,801.00
2023-05-05T02:04:17.934Z,789.00
2023-05-05T02:05:17.960Z,823.00
2023-05-05T02:06:17.999Z,829.00
2023-05-05T02:07:17.995Z,822.00
2023-05-05T02:08:18.073Z,810.00
2023-05-05T02:09:18.067Z,807.00
2023-05-05T02:10:18.149Z,830.00
2023-05-05T02:11:18.165Z,794.00
2023-05-05T02:12:18.226Z,798.00
2023-05-05T02:13:18.363Z,804.00
2023-05-05T02:14:18.239Z,781.00
2023-05-05T02:15:18.250Z,757.00
2023-05-05T02:16:18.433Z,774.00
2023-05-05T02:17:18.276Z,778.00
2023-05-05T02:18:18.261Z,761.00
2023-05-05T02:19:18.272Z,806.00
2023-05-05T02:20:18.285Z,823.00
2023-05-05T02:21:18.308Z,765.00
2023-05-05T02:22:18.301Z,800.00
2023-05-05T02:23:18.263Z,821.00
2023-05-05T02:24:18.411Z,811.00
2023-05-05T02:25:18.311Z,844.00
2023-05-05T02:26:18.319Z,816.00
2023-05-05T02:27:18.341Z,863.00
2023-05-05T02:28:18.290Z,864.00
2023-05-05T02:29:18.314Z,839.00
2023-05-05T02:30:18.331Z,867.00
2023-05-05T02:31:18.391Z,845.00
2023-05-05T02:32:18.337Z,805.00
2023-05-05T02:33:18.317Z,850.00
2023-05-05T02:34:18.311Z,835.00
2023-05-05T02:35:18.320Z,851.00
2023-05-05T02:36:18.310Z,865.00
2023-05-05T02:37:18.332Z,865.00
2023-05-05T02:38:18.336Z,856.00
2023-05-05T02:39:18.316Z,851.00
2023-05-05T02:40:18.297Z,857.00
2023-05-05T02:41:18.305Z,879.00
2023-05-05T02:42:18.289Z,889.00
2023-05-05T02:43:18.396Z,894.00
2023-05-05T02:44:18.311Z,908.00
2023-05-05T02:45:18.309Z,917.00
2023-05-05T02:46:18.352Z,912.00
2023-05-05T02:47:18.315Z,936.00
2023-05-05T02:48:18.317Z,929.00
2023-05-05T02:49:18.272Z,903.00
2023-05-05T02:50:18.320Z,888.00
2023-05-05T02:51:18.281Z,877.00
2023-05-05T02:52:18.288Z,869.00
2023-05-05T02:53:18.287Z,887.00
2023-05-05T02:54:18.278Z,908.00
2023-05-05T02:55:18.278Z,905.00
2023-05-05T02:56:18.246Z,905.00
2023-05-05T02:57:18.301Z,883.00
2023-05-05T02:58:18.267Z,892.00
2023-05-05T02:59:18.279Z,865.00
2023-05-05T03:00:18.275Z,844.00
2023-05-05T03:01:18.346Z,876.00
2023-05-05T03:02:18.286Z,884.00
2023-05-05T03:03:18.408Z,898.00
2023-05-05T03:04:18.282Z,900.00
2023-05-05T03:05:18.330Z,912.00
2023-05-05T03:06:18.301Z,913.00
2023-05-05T03:07:18.322Z,918.00
2023-05-05T03:08:18.321Z,927.00
2023-05-05T03:09:18.336Z,942.00
2023-05-05T03:10:18.297Z,932.00
2023-05-05T03:11:18.305Z,932.00
2023-05-05T03:12:18.319Z,942.00
2023-05-05T03:13:18.282Z,951.00
2023-05-05T03:14:18.330Z,934.00
2023-05-05T03:15:18.303Z,964.00
2023-05-05T03:16:18.332Z,964.00
2023-05-05T03:17:18.302Z,963.00
2023-05-05T03:18:18.290Z,969.00
2023-05-05T03:19:18.271Z,948.00
2023-05-05T03:20:18.270Z,964.00
2023-05-05T03:21:18.306Z,940.00
2023-05-05T03:22:18.294Z,966.00
2023-05-05T03:23:18.327Z,944.00
2023-05-05T03:24:18.298Z,967.00
2023-05-05T03:25:18.308Z,965.00
2023-05-05T03:26:18.292Z,951.00
2023-05-05T03:27:18.308Z,979.00
2023-05-05T03:28:18.316Z,993.00
2023-05-05T03:29:18.282Z,981.00
2023-05-05T03:30:18.294Z,972.00
2023-05-05T03:31:18.398Z,974.00
2023-05-05T03:32:18.309Z,981.00
2023-05-05T03:33:18.267Z,972.00
2023-05-05T03:34:18.246Z,953.00
2023-05-05T03:35:18.257Z,922.00
2023-05-05T03:36:18.262Z,928.00
2023-05-05T03:37:18.230Z,932.00
2023-05-05T03:38:18.276Z,922.00
2023-05-05T03:39:18.295Z,947.00
2023-05-05T03:40:18.299Z,954.00
2023-05-05T03:41:18.370Z,934.00
2023-05-05T03:42:18.262Z,959.00
2023-05-05T03:43:18.331Z,961.00
2023-05-05T03:44:18.283Z,983.00
2023-05-05T03:45:18.285Z,975.00
2023-05-05T03:46:18.446Z,964.00
2023-05-05T03:47:18.299Z,954.00
2023-05-05T03:48:18.324Z,964.00
2023-05-05T03:49:18.348Z,958.00
2023-05-05T03:50:18.361Z,967.00
2023-05-05T03:51:18.356Z,973.00
2023-05-05T03:52:18.403Z,977.00
2023-05-05T03:53:18.420Z,972.00
2023-05-05T03:54:18.411Z,988.00
2023-05-05T03:55:18.433Z,985.00
2023-05-05T03:56:18.464Z,988.00
2023-05-05T03:57:18.479Z,994.00
2023-05-05T03:58:18.483Z,999.00
2023-05-05T03:59:18.494Z,999.00
2023-05-05T04:00:18.500Z,1007.00
2023-05-05T04:01:18.500Z,1018.00
2023-05-05T04:02:18.937Z,1041.00
2023-05-05T04:03:18.644Z,1026.00
2023-05-05T04:04:18.652Z,1028.00
2023-05-05T04:05:18.563Z,1032.00
2023-05-05T04:06:18.638Z,1038.00
2023-05-05T04:07:18.634Z,1032.00
2023-05-05T04:08:18.644Z,1025.00
2023-05-05T04:09:18.677Z,1022.00
2023-05-05T04:10:18.698Z,1017.00
2023-05-05T04:11:18.669Z,1020.00
2023-05-05T04:12:18.764Z,1024.00
2023-05-05T04:13:18.755Z,1020.00
2023-05-05T04:14:18.724Z,1027.00
2023-05-05T04:15:18.736Z,1030.00
2023-05-05T04:16:18.784Z,1044.00
2023-05-05T04:17:18.740Z,1035.00
2023-05-05T04:18:18.727Z,1032.00
2023-05-05T04:19:18.781Z,1023.00
2023-05-05T04:20:18.788Z,1017.00
2023-05-05T04:21:18.792Z,1035.00
2023-05-05T04:22:18.781Z,1038.00
2023-05-05T04:23:18.812Z,1030.00
2023-05-05T04:24:18.793Z,1048.00
2023-05-05T04:25:18.821Z,1060.00
2023-05-05T04:26:18.796Z,1059.00
2023-05-05T04:27:18.845Z,1056.00
2023-05-05T04:28:20.951Z,1048.00
2023-05-05T04:29:18.797Z,1071.00
2023-05-05T04:30:18.810Z,1067.00
2023-05-05T04:31:18.859Z,1061.00
2023-05-05T04:32:18.782Z,1058.00
2023-05-05T04:33:18.779Z,1065.00
2023-05-05T04:34:18.739Z,1056.00
2023-05-05T04:35:18.740Z,1057.00
2023-05-05T04:36:18.741Z,1023.00
2023-05-05T04:37:18.726Z,1028.00
2023-05-05T04:38:18.756Z,1051.00
2023-05-05T04:39:18.734Z,1044.00
2023-05-05T04:40:18.748Z,1037.00
2023-05-05T04:41:18.730Z,1044.00
2023-05-05T04:42:18.697Z,1052.00
2023-05-05T04:43:18.705Z,1050.00
2023-05-05T04:44:18.685Z,1020.00
2023-05-05T04:45:18.695Z,1036.00
2023-05-05T04:46:18.702Z,1036.00
2023-05-05T04:47:18.654Z,1032.00
2023-05-05T04:48:18.682Z,1031.00
2023-05-05T04:49:18.669Z,1019.00
2023-05-05T04:50:18.684Z,987.00
2023-05-05T04:51:18.673Z,1017.00
2023-05-05T04:52:18.612Z,1021.00
2023-05-05T04:53:18.605Z,1038.00
2023-05-05T04:54:18.616Z,1034.00
2023-05-05T04:55:18.656Z,1043.00
2023-05-05T04:56:18.632Z,1073.00
2023-05-05T04:57:18.601Z,1088.00
2023-05-05T04:58:18.607Z,1078.00
2023-05-05T04:59:18.629Z,1098.00
2023-05-05T05:00:18.578Z,1103.00
2023-05-05T05:01:18.589Z,1116.00
2023-05-05T05:02:18.590Z,1121.00
2023-05-05T05:03:18.645Z,1123.00
2023-05-05T05:04:18.720Z,1122.00
2023-05-05T05:05:18.540Z,1103.00
2023-05-05T05:06:18.558Z,1121.00
2023-05-05T05:07:18.536Z,1085.00
2023-05-05T05:08:18.503Z,1080.00
2023-05-05T05:09:18.485Z,1095.00
2023-05-05T05:10:18.493Z,1091.00
2023-05-05T05:11:18.476Z,1073.00
2023-05-05T05:12:18.492Z,1088.00
2023-05-05T05:13:18.690Z,1113.00
2023-05-05T05:14:18.493Z,1109.00
2023-05-05T05:15:18.478Z,1109.00
2023-05-05T05:16:18.533Z,1128.00
2023-05-05T05:17:18.489Z,1106.00
2023-05-05T05:18:18.469Z,1129.00
2023-05-05T05:19:18.453Z,1123.00
2023-05-05T05:20:18.439Z,1103.00
2023-05-05T05:21:18.413Z,1157.00
2023-05-05T05:22:18.432Z,1152.00
2023-05-05T05:23:19.389Z,1147.00
2023-05-05T05:24:18.416Z,1127.00
2023-05-05T05:25:18.385Z,1152.00
2023-05-05T05:26:18.389Z,1149.00
2023-05-05T05:27:18.398Z,1110.00
2023-05-05T05:28:18.373Z,1118.00
2023-05-05T05:29:18.353Z,1141.00
2023-05-05T05:30:18.341Z,1148.00
2023-05-05T05:31:18.359Z,1141.00
2023-05-05T05:32:18.372Z,1151.00
2023-05-05T05:33:18.325Z,1149.00
2023-05-05T05:34:18.333Z,1153.00
2023-05-05T05:35:18.337Z,1157.00
2023-05-05T05:36:18.303Z,1172.00
2023-05-05T05:37:18.284Z,1332.00
2023-05-05T05:38:18.312Z,1352.00
2023-05-05T05:39:18.291Z,1305.00
2023-05-05T05:40:18.323Z,1270.00
2023-05-05T05:41:18.284Z,1252.00
2023-05-05T05:42:18.320Z,1262.00
2023-05-05T05:43:18.291Z,1267.00
2023-05-05T05:44:18.232Z,1282.00
2023-05-05T05:45:18.262Z,1296.00
2023-05-05T05:46:18.276Z,1346.00
2023-05-05T05:47:18.240Z,1338.00
2023-05-05T05:48:18.218Z,1379.00
2023-05-05T05:49:18.230Z,1380.00
2023-05-05T05:50:18.208Z,1455.00
2023-05-05T05:51:18.217Z,1428.00
2023-05-05T05:52:18.192Z,1482.00
2023-05-05T05:53:18.179Z,1538.00
2023-05-05T05:54:18.183Z,1509.00
2023-05-05T05:55:18.254Z,1580.00
2023-05-05T05:56:18.167Z,1606.00
2023-05-05T05:57:18.142Z,1615.00
2023-05-05T05:58:18.178Z,1580.00
2023-05-05T05:59:18.158Z,1595.00
2023-05-05T06:00:18.158Z,1548.00
2023-05-05T06:01:18.154Z,1530.00
2023-05-05T06:02:18.188Z,1538.00
2023-05-05T06:03:18.217Z,1583.00
2023-05-05T06:04:18.173Z,1574.00
2023-05-05T06:05:18.172Z,1597.00
2023-05-05T06:06:18.417Z,1598.00
2023-05-05T06:07:18.224Z,1585.00
2023-05-05T06:08:18.246Z,1591.00
2023-05-05T06:09:18.285Z,1559.00
2023-05-05T06:10:26.500Z,1564.00
2023-05-05T06:11:19.306Z,1566.00
2023-05-05T06:12:18.277Z,1569.00
2023-05-05T06:13:18.313Z,1585.00
2023-05-05T06:14:19.948Z,1585.00
2023-05-05T06:15:18.258Z,1599.00
2023-05-05T06:16:18.269Z,1586.00
2023-05-05T06:17:18.291Z,1588.00
2023-05-05T06:18:18.268Z,1561.00
2023-05-05T06:19:18.249Z,1579.00
2023-05-05T06:20:18.237Z,1488.00
2023-05-05T06:21:18.220Z,1525.00
2023-05-05T06:22:18.251Z,1529.00
2023-05-05T06:23:18.207Z,1530.00
2023-05-05T06:24:18.175Z,1539.00
2023-05-05T06:25:18.213Z,1526.00
2023-05-05T06:26:18.153Z,1529.00
2023-05-05T06:27:18.386Z,1543.00
2023-05-05T06:28:18.189Z,1500.00
2023-05-05T06:29:18.178Z,1508.00
2023-05-05T06:30:18.155Z,1510.00
2023-05-05T06:31:18.220Z,1478.00
2023-05-05T06:32:18.156Z,1472.00
2023-05-05T06:33:18.159Z,1433.00
2023-05-05T06:34:18.164Z,1406.00
2023-05-05T06:35:18.193Z,1400.00
2023-05-05T06:36:18.228Z,1362.00
2023-05-05T06:37:18.604Z,1340.00
2023-05-05T06:38:18.193Z,1318.00
2023-05-05T06:39:18.196Z,1283.00
2023-05-05T06:40:18.197Z,1308.00
2023-05-05T06:41:18.231Z,1307.00
2023-05-05T06:42:18.262Z,1265.00
2023-05-05T06:43:18.205Z,1267.00
2023-05-05T06:44:18.193Z,1262.00
2023-05-05T06:45:18.192Z,1232.00
2023-05-05T06:46:18.181Z,1246.00
2023-05-05T06:47:18.432Z,1214.00
2023-05-05T06:48:18.254Z,1207.00
2023-05-05T06:49:18.198Z,1227.00
2023-05-05T06:50:18.206Z,1280.00
2023-05-05T06:51:18.151Z,1277.00
2023-05-05T06:52:18.192Z,1367.00
2023-05-05T06:53:18.215Z,1408.00
2023-05-05T06:54:18.244Z,1512.00
2023-05-05T06:55:18.276Z,1553.00
2023-05-05T06:56:18.333Z,1569.00
2023-05-05T06:57:18.385Z,1590.00
2023-05-05T06:58:18.357Z,1584.00
2023-05-05T06:59:18.430Z,1574.00
2023-05-05T07:00:18.482Z,1597.00
2023-05-05T07:01:18.670Z,1635.00
2023-05-05T07:02:18.626Z,1610.00
2023-05-05T07:03:18.764Z,1628.00
2023-05-05T07:04:18.998Z,1477.00
2023-05-05T07:05:18.798Z,1378.00
2023-05-05T07:06:18.842Z,1259.00
2023-05-05T07:07:18.921Z,1150.00
2023-05-05T07:08:19.038Z,886.00
2023-05-05T07:09:19.012Z,658.00
2023-05-05T07:10:19.048Z,646.00
2023-05-05T07:11:19.035Z,568.00
2023-05-05T07:12:19.090Z,611.00
2023-05-05T07:13:19.101Z,543.00
2023-05-05T07:14:19.592Z,550.00
2023-05-05T07:15:28.098Z,580.00
2023-05-05T07:16:20.125Z,581.00
2023-05-05T07:17:19.097Z,583.00
2023-05-05T07:18:19.066Z,586.00
2023-05-05T07:19:19.101Z,590.00
2023-05-05T07:20:19.240Z,581.00
2023-05-05T07:21:19.038Z,536.00
2023-05-05T07:22:19.086Z,553.00
2023-05-05T07:23:19.058Z,521.00
2023-05-05T07:24:19.033Z,519.00
2023-05-05T07:25:19.008Z,497.00
2023-05-05T07:26:19.046Z,553.00
2023-05-05T07:27:19.045Z,595.00
2023-05-05T07:28:19.009Z,638.00
2023-05-05T07:29:19.016Z,602.00
2023-05-05T07:30:19.458Z,557.00
2023-05-05T07:31:19.008Z,508.00
2023-05-05T07:32:19.066Z,473.00
2023-05-05T07:33:19.007Z,499.00
2023-05-05T07:34:18.989Z,503.00
2023-05-05T07:35:19.039Z,521.00
2023-05-05T07:36:19.241Z,530.00
2023-05-05T07:37:19.459Z,498.00
2023-05-05T07:38:19.085Z,525.00
2023-05-05T07:39:22.883Z,491.00
2023-05-05T07:40:19.090Z,492.00
2023-05-05T07:41:19.074Z,405.00
2023-05-05T07:42:19.447Z,400.00
2023-05-05T07:43:19.059Z,400.00
2023-05-05T07:44:19.084Z,400.00
2023-05-05T07:45:19.092Z,400.00
2023-05-05T07:46:19.286Z,400.00
2023-05-05T07:47:19.482Z,400.00
2023-05-05T07:48:19.038Z,400.00
2023-05-05T07:49:19.061Z,400.00
2023-05-05T07:50:19.050Z,400.00
2023-05-05T07:51:19.002Z,400.00
2023-05-05T07:52:21.477Z,400.00
2023-05-05T07:53:20.196Z,400.00
2023-05-05T07:54:19.001Z,400.00
2023-05-05T07:55:18.999Z,400.00
2023-05-05T07:56:19.893Z,407.00
2023-05-05T07:57:19.165Z,400.00
2023-05-05T07:58:19.218Z,421.00
2023-05-05T07:59:19.223Z,489.00
2023-05-05T08:00:19.294Z,521.00
2023-05-05T08:01:19.371Z,562.00
2023-05-05T08:02:19.368Z,552.00
2023-05-05T08:03:19.372Z,513.00
2023-05-05T08:04:19.389Z,520.00
2023-05-05T08:05:19.392Z,546.00
2023-05-05T08:06:19.411Z,566.00
2023-05-05T08:07:19.436Z,605.00
2023-05-05T08:08:19.583Z,571.00
2023-05-05T08:09:19.516Z,544.00
2023-05-05T08:10:19.495Z,606.00
2023-05-05T08:11:19.529Z,587.00
2023-05-05T08:12:19.566Z,626.00
2023-05-05T08:13:19.644Z,610.00
2023-05-05T08:14:19.566Z,639.00
2023-05-05T08:15:19.563Z,810.00
2023-05-05T08:16:19.609Z,812.00
2023-05-05T08:17:19.573Z,1001.00
2023-05-05T08:18:19.577Z,1186.00
2023-05-05T08:19:28.829Z,1295.00
2023-05-05T08:20:20.596Z,1225.00
2023-05-05T08:21:19.551Z,1260.00
2023-05-05T08:22:19.544Z,1311.00
2023-05-05T08:23:19.570Z,1257.00
2023-05-05T08:24:19.610Z,1256.00
2023-05-05T08:25:19.522Z,1179.00
2023-05-05T08:26:19.508Z,1222.00
2023-05-05T08:27:19.495Z,1353.00
2023-05-05T08:28:19.614Z,1361.00
2023-05-05T08:29:19.485Z,1446.00
2023-05-05T08:30:19.490Z,1466.00
2023-05-05T08:31:19.560Z,1456.00
2023-05-05T08:32:19.572Z,1445.00
2023-05-05T08:33:19.550Z,1253.00
2023-05-05T08:34:19.593Z,1013.00
2023-05-05T08:35:19.599Z,988.00
2023-05-05T08:36:19.641Z,824.00
2023-05-05T08:37:19.659Z,962.00
2023-05-05T08:38:19.659Z,1149.00
2023-05-05T08:39:19.666Z,1404.00
2023-05-05T08:40:19.754Z,1136.00
2023-05-05T08:41:19.829Z,1195.00
2023-05-05T08:42:35.657Z,1312.00
2023-05-05T08:43:20.711Z,1322.00
2023-05-05T08:44:19.690Z,1181.00
2023-05-05T08:45:19.668Z,1062.00
2023-05-05T08:46:19.701Z,1217.00
2023-05-05T08:47:20.025Z,1398.00
2023-05-05T08:48:19.764Z,1564.00
2023-05-05T08:49:19.847Z,1774.00
2023-05-05T08:50:19.915Z,1866.00
2023-05-05T08:51:19.984Z,1914.00
2023-05-05T08:52:20.507Z,2015.00
2023-05-05T08:53:20.070Z,1708.00
2023-05-05T08:54:20.097Z,1409.00
2023-05-05T08:55:20.174Z,1118.00
2023-05-05T08:56:20.396Z,838.00
2023-05-05T08:57:20.293Z,1105.00
2023-05-05T08:58:20.363Z,1255.00
2023-05-05T08:59:20.455Z,1654.00
2023-05-05T09:00:20.551Z,1850.00
2023-05-05T09:01:20.589Z,1977.00
2023-05-05T09:02:20.643Z,2096.00
2023-05-05T09:03:20.667Z,2170.00
2023-05-05T09:04:20.709Z,2288.00
2023-05-05T09:05:20.759Z,2363.00
2023-05-05T09:06:20.784Z,2423.00
2023-05-05T09:07:20.968Z,2447.00
2023-05-05T09:08:20.833Z,2527.00
2023-05-05T09:09:20.893Z,2615.00
2023-05-05T09:10:20.927Z,2660.00
2023-05-05T09:11:20.932Z,2704.00
2023-05-05T09:12:20.999Z,2731.00
2023-05-05T09:13:21.034Z,2741.00
2023-05-05T09:14:20.972Z,2813.00
2023-05-05T09:15:20.991Z,2840.00
2023-05-05T09:16:21.009Z,2896.00
2023-05-05T09:17:21.051Z,2928.00
2023-05-05T09:18:21.006Z,2959.00
2023-05-05T09:19:21.014Z,2976.00
2023-05-05T09:20:21.065Z,3017.00
2023-05-05T09:21:21.014Z,3048.00
2023-05-05T09:22:21.507Z,3078.00
2023-05-05T09:23:21.087Z,3082.00
2023-05-05T09:24:21.055Z,3115.00
2023-05-05T09:25:21.070Z,3131.00
2023-05-05T09:26:21.044Z,3174.00
2023-05-05T09:27:21.024Z,3229.00
2023-05-05T09:28:21.626Z,3243.00
2023-05-05T09:29:21.048Z,3277.00
2023-05-05T09:30:21.159Z,3299.00
2023-05-05T09:31:21.060Z,3344.00
2023-05-05T09:32:21.065Z,3384.00
2023-05-05T09:33:21.057Z,3389.00
2023-05-05T09:34:21.051Z,3389.00
2023-05-05T09:35:21.100Z,3415.00
2023-05-05T09:36:21.147Z,3433.00
2023-05-05T09:37:21.177Z,3455.00
2023-05-05T09:38:21.255Z,3466.00
2023-05-05T09:39:21.290Z,3497.00
2023-05-05T09:40:21.449Z,3521.00
2023-05-05T09:41:21.389Z,3532.00
2023-05-05T09:42:21.522Z,3558.00
2023-05-05T09:43:22.063Z,3626.00
2023-05-05T09:44:21.702Z,3665.00
2023-05-05T09:45:21.645Z,3642.00
2023-05-05T09:46:21.661Z,3635.00
2023-05-05T09:47:29.560Z,3661.00
2023-05-05T09:48:23.000Z,3608.00
2023-05-05T09:49:21.667Z,3431.00
2023-05-05T09:50:22.402Z,3429.00
2023-05-05T09:51:21.695Z,3406.00
2023-05-05T09:52:21.703Z,3391.00
2023-05-05T09:53:21.668Z,3381.00
2023-05-05T09:54:21.649Z,3374.00
2023-05-05T09:55:21.660Z,3346.00
2023-05-05T09:56:21.652Z,3326.00
2023-05-05T09:57:21.624Z,3295.00
2023-05-05T09:58:22.001Z,3303.00
2023-05-05T09:59:21.631Z,3300.00
2023-05-05T10:00:21.810Z,3295.00
2023-05-05T10:01:21.624Z,3333.00
2023-05-05T10:02:21.573Z,3332.00
2023-05-05T10:03:21.974Z,3342.00
2023-05-05T10:04:21.614Z,3287.00
2023-05-05T10:05:21.603Z,3273.00
2023-05-05T10:06:21.594Z,3283.00
2023-05-05T10:07:21.585Z,3308.00
2023-05-05T10:08:21.980Z,3337.00
2023-05-05T10:09:21.572Z,3319.00
2023-05-05T10:10:21.540Z,3345.00
2023-05-05T10:11:21.549Z,3335.00
2023-05-05T10:12:21.542Z,3347.00
2023-05-05T10:13:21.580Z,3345.00
2023-05-05T10:14:21.546Z,3344.00
2023-05-05T10:15:21.587Z,3337.00
2023-05-05T10:16:21.571Z,3357.00
2023-05-05T10:17:21.506Z,3392.00
2023-05-05T10:18:21.532Z,3387.00
2023-05-05T10:19:21.552Z,3375.00
2023-05-05T10:20:21.440Z,3376.00
2023-05-05T10:21:21.469Z,3366.00
2023-05-05T10:22:21.476Z,3390.00
2023-05-05T10:23:21.498Z,3372.00
2023-05-05T10:24:21.460Z,3377.00
2023-05-05T10:25:21.448Z,3371.00
2023-05-05T10:26:21.472Z,3362.00
2023-05-05T10:27:21.465Z,3382.00
2023-05-05T10:28:21.476Z,3370.00
2023-05-05T10:29:21.505Z,3369.00
2023-05-05T10:30:21.547Z,3359.00
2023-05-05T10:31:26.354Z,3335.00
2023-05-05T10:32:50.897Z,3336.00
2023-05-05T10:34:21.519Z,3337.00
2023-05-05T10:35:21.503Z,3335.00
2023-05-05T10:36:21.588Z,3296.00
2023-05-05T10:37:21.482Z,3242.00
2023-05-05T10:38:21.457Z,3163.00
2023-05-05T10:39:21.443Z,3047.00
2023-05-05T10:40:21.454Z,3132.00
2023-05-05T10:41:21.455Z,3137.00
2023-05-05T10:42:21.435Z,3201.00
2023-05-05T10:43:21.432Z,3125.00
2023-05-05T10:44:21.420Z,3098.00
2023-05-05T10:45:21.452Z,3111.00
2023-05-05T10:46:21.442Z,3218.00
2023-05-05T10:47:21.408Z,3284.00
2023-05-05T10:48:21.546Z,3165.00
2023-05-05T10:49:21.386Z,3070.00
2023-05-05T10:50:21.379Z,2915.00
2023-05-05T10:51:31.043Z,2864.00
2023-05-05T10:52:22.368Z,2866.00
2023-05-05T10:53:21.370Z,2865.00
2023-05-05T10:54:21.436Z,2757.00
2023-05-05T10:55:21.399Z,2801.00
2023-05-05T10:56:21.313Z,2865.00
2023-05-05T10:57:21.354Z,2918.00
2023-05-05T10:58:21.345Z,2843.00
2023-05-05T10:59:21.306Z,3000.00
2023-05-05T11:00:21.321Z,3040.00
2023-05-05T11:01:21.418Z,3132.00
2023-05-05T11:02:21.464Z,3178.00
2023-05-05T11:03:21.524Z,3086.00
2023-05-05T11:04:21.585Z,3078.00
2023-05-05T11:05:21.664Z,3177.00
2023-05-05T11:06:21.635Z,3156.00
2023-05-05T11:07:21.640Z,3150.00
2023-05-05T11:08:21.669Z,3136.00
2023-05-05T11:09:21.691Z,3019.00
2023-05-05T11:10:21.804Z,2981.00
2023-05-05T11:11:21.844Z,2781.00
2023-05-05T11:12:21.881Z,2841.00
2023-05-05T11:13:21.952Z,2864.00
2023-05-05T11:14:21.911Z,2964.00
2023-05-05T11:15:21.958Z,3102.00
2023-05-05T11:16:22.033Z,3198.00
2023-05-05T11:17:22.022Z,3217.00
2023-05-05T11:18:22.057Z,3185.00
2023-05-05T11:19:22.061Z,3258.00
2023-05-05T11:20:22.217Z,3345.00
2023-05-05T11:21:22.133Z,3361.00
2023-05-05T11:22:22.099Z,3469.00
2023-05-05T11:23:22.178Z,3479.00
2023-05-05T11:24:22.140Z,3527.00
2023-05-05T11:25:22.154Z,3570.00
2023-05-05T11:26:22.171Z,3677.00
2023-05-05T11:27:22.174Z,3757.00
2023-05-05T11:28:22.571Z,3846.00
2023-05-05T11:29:22.191Z,3914.00
2023-05-05T11:30:22.200Z,3939.00
2023-05-05T11:31:22.278Z,3858.00
2023-05-05T11:32:22.225Z,3759.00
2023-05-05T11:33:22.544Z,3765.00
2023-05-05T11:34:22.214Z,3824.00
2023-05-05T11:35:22.216Z,3878.00
2023-05-05T11:36:22.300Z,3964.00
2023-05-05T11:37:22.304Z,4044.00
2023-05-05T11:38:22.243Z,4078.00
2023-05-05T11:39:22.293Z,4098.00
2023-05-05T11:40:22.272Z,4087.00
2023-05-05T11:41:22.310Z,4102.00
2023-05-05T11:42:22.362Z,3947.00
2023-05-05T11:43:22.513Z,3858.00
2023-05-05T11:44:22.425Z,3730.00
2023-05-05T11:45:22.419Z,3820.00
2023-05-05T11:46:22.552Z,3899.00
2023-05-05T11:47:22.533Z,3954.00
2023-05-05T11:48:22.570Z,3924.00
2023-05-05T11:49:22.617Z,3894.00
2023-05-05T11:50:22.694Z,3922.00
2023-05-05T11:51:22.677Z,3899.00
2023-05-05T11:52:22.808Z,3586.00
2023-05-05T11:53:22.779Z,3588.00
2023-05-05T11:54:22.815Z,3649.00
2023-05-05T11:55:22.892Z,3758.00
2023-05-05T11:56:22.927Z,3857.00
2023-05-05T11:57:22.985Z,3873.00
2023-05-05T11:58:22.994Z,3918.00
2023-05-05T11:59:23.049Z,3938.00
2023-05-05T12:00:23.125Z,3938.00
2023-05-05T12:01:23.165Z,3929.00
2023-05-05T12:02:24.111Z,3922.00
2023-05-05T12:03:23.412Z,3873.00
2023-05-05T12:04:23.336Z,3910.00
2023-05-05T12:05:23.316Z,3934.00
2023-05-05T12:06:23.338Z,3938.00
2023-05-05T12:07:23.425Z,3926.00
2023-05-05T12:08:23.515Z,3912.00
2023-05-05T12:09:23.485Z,3872.00
2023-05-05T12:10:23.544Z,3823.00
2023-05-05T12:11:23.595Z,3832.00
2023-05-05T12:12:23.646Z,3810.00
2023-05-05T12:13:23.724Z,3781.00
2023-05-05T12:14:23.755Z,3751.00
2023-05-05T12:15:23.776Z,3756.00
2023-05-05T12:16:23.886Z,3747.00